createdAt,value
2022-12-09T00:02:10.864Z,0.50
2022-12-09T00:04:39.655Z,0.50
2022-12-09T00:07:08.179Z,0.51
2022-12-09T00:09:36.544Z,0.53
2022-12-09T00:12:04.870Z,0.41
2022-12-09T00:14:33.222Z,0.49
2022-12-09T00:17:01.770Z,0.48
2022-12-09T00:19:30.451Z,0.47
2022-12-09T00:21:58.572Z,0.44
2022-12-09T00:24:26.829Z,0.43
2022-12-09T00:26:55.082Z,0.35
2022-12-09T00:29:23.523Z,0.40
2022-12-09T00:31:51.858Z,0.39
2022-12-09T00:34:20.297Z,0.38
2022-12-09T00:36:48.604Z,0.39
2022-12-09T00:39:16.855Z,0.39
2022-12-09T00:41:45.334Z,0.40
2022-12-09T00:44:13.521Z,0.41
2022-12-09T00:46:41.910Z,0.44
2022-12-09T00:49:11.000Z,0.46
2022-12-09T00:51:39.309Z,0.48
2022-12-09T00:54:07.662Z,0.50
2022-12-09T00:56:36.735Z,0.51
2022-12-09T00:59:05.072Z,0.51
2022-12-09T01:01:33.251Z,0.54
2022-12-09T01:04:02.788Z,0.58
2022-12-09T01:06:31.504Z,0.52
2022-12-09T01:09:02.053Z,0.63
2022-12-09T01:11:31.085Z,0.64
2022-12-09T01:14:02.242Z,0.67
2022-12-09T01:16:33.771Z,0.68
2022-12-09T01:19:07.923Z,0.68
2022-12-09T01:21:36.218Z,0.67
2022-12-09T01:24:10.246Z,0.66
2022-12-09T01:26:39.367Z,0.64
2022-12-09T01:29:07.926Z,0.61
2022-12-09T01:31:36.872Z,0.59
2022-12-09T01:34:05.691Z,0.55
2022-12-09T01:36:34.286Z,0.51
2022-12-09T01:39:04.123Z,0.46
2022-12-09T01:41:32.384Z,0.42
2022-12-09T01:44:13.043Z,0.40
2022-12-09T01:46:42.851Z,0.38
2022-12-09T01:49:17.181Z,0.38
2022-12-09T01:51:52.825Z,0.35
2022-12-09T01:54:22.064Z,0.33
2022-12-09T01:56:51.640Z,0.30
2022-12-09T01:59:21.186Z,0.26
2022-12-09T02:01:53.198Z,0.22
2022-12-09T02:04:22.224Z,0.15
2022-12-09T02:06:51.259Z,0.08
2022-12-09T02:09:20.298Z,-0.02
2022-12-09T02:11:56.877Z,-0.10
2022-12-09T02:14:32.037Z,-0.26
2022-12-09T02:17:16.532Z,-0.25
2022-12-09T02:19:52.431Z,-0.34
2022-12-09T02:22:28.420Z,-0.39
2022-12-09T02:25:14.324Z,-0.42
2022-12-09T02:28:02.110Z,-0.46
2022-12-09T02:30:39.523Z,-0.50
2022-12-09T02:33:34.087Z,-0.54
2022-12-09T02:36:05.887Z,-0.65
2022-12-09T02:38:37.674Z,-0.74
2022-12-09T02:41:13.893Z,-0.79
2022-12-09T02:43:50.760Z,-0.80
2022-12-09T02:46:24.827Z,-0.82
2022-12-09T02:48:59.525Z,-0.85
2022-12-09T02:51:29.966Z,-0.86
2022-12-09T02:54:14.753Z,-0.91
2022-12-09T02:56:55.154Z,-0.94
2022-12-09T02:59:23.506Z,-0.97
2022-12-09T03:02:12.339Z,-1.01
2022-12-09T03:04:45.505Z,-0.99
2022-12-09T03:07:36.570Z,-0.98
2022-12-09T03:10:12.859Z,-0.99
2022-12-09T03:12:47.365Z,-1.13
2022-12-09T03:15:21.916Z,-1.07
2022-12-09T03:17:52.819Z,-1.10
2022-12-09T03:20:29.800Z,-1.08
2022-12-09T03:23:02.240Z,-1.09
2022-12-09T03:25:39.760Z,-1.13
2022-12-09T03:28:14.723Z,-1.13
2022-12-09T03:30:45.610Z,-1.14
2022-12-09T03:33:18.298Z,-1.14
2022-12-09T03:35:51.894Z,-1.13
2022-12-09T03:38:22.988Z,-1.13
2022-12-09T03:40:58.865Z,-1.12
2022-12-09T03:43:32.450Z,-1.15
2022-12-09T03:46:01.607Z,-1.22
2022-12-09T03:48:30.009Z,-1.25
2022-12-09T03:51:05.056Z,-1.28
2022-12-09T03:53:40.233Z,-1.31
2022-12-09T03:56:12.420Z,-1.31
2022-12-09T03:58:45.222Z,-1.30
2022-12-09T04:01:14.712Z,-1.30
2022-12-09T04:03:46.214Z,-1.30
2022-12-09T04:06:14.578Z,-1.30
2022-12-09T04:08:43.349Z,-1.33
2022-12-09T04:11:12.543Z,-1.36
2022-12-09T04:13:40.670Z,-1.36
2022-12-09T04:16:10.159Z,-1.35
2022-12-09T04:18:38.645Z,-1.37
2022-12-09T04:21:08.651Z,-1.38
2022-12-09T04:23:42.455Z,-1.40
2022-12-09T04:26:19.393Z,-1.40
2022-12-09T04:28:48.089Z,-1.41
2022-12-09T04:31:18.173Z,-1.45
2022-12-09T04:33:48.037Z,-1.45
2022-12-09T04:36:18.237Z,-1.47
2022-12-09T04:38:46.676Z,-1.50
2022-12-09T04:41:16.148Z,-1.48
2022-12-09T04:43:44.633Z,-1.50
2022-12-09T04:46:15.332Z,-1.50
2022-12-09T04:48:44.469Z,-1.51
2022-12-09T04:51:14.928Z,-1.60
2022-12-09T04:53:43.442Z,-1.56
2022-12-09T04:56:21.515Z,-1.57
2022-12-09T04:58:50.762Z,-1.54
2022-12-09T05:01:26.672Z,-1.50
2022-12-09T05:03:59.625Z,-1.48
2022-12-09T05:06:28.430Z,-1.47
2022-12-09T05:08:57.561Z,-1.46
2022-12-09T05:11:26.877Z,-1.46
2022-12-09T05:13:55.462Z,-1.47
2022-12-09T05:16:24.208Z,-1.49
2022-12-09T05:18:54.038Z,-1.48
2022-12-09T05:21:22.601Z,-1.48
2022-12-09T05:23:51.131Z,-1.51
2022-12-09T05:26:22.806Z,-1.52
2022-12-09T05:28:52.470Z,-1.54
2022-12-09T05:31:22.938Z,-1.58
2022-12-09T05:33:52.436Z,-1.65
2022-12-09T05:36:30.429Z,-1.69
2022-12-09T05:38:59.145Z,-1.71
2022-12-09T05:41:29.200Z,-1.73
2022-12-09T05:43:57.357Z,-1.77
2022-12-09T05:46:26.024Z,-1.81
2022-12-09T05:48:54.827Z,-1.81
2022-12-09T05:51:27.140Z,-1.83
2022-12-09T05:53:57.520Z,-1.87
2022-12-09T05:56:26.770Z,-1.90
2022-12-09T05:58:56.461Z,-1.93
2022-12-09T06:01:27.180Z,-1.95
2022-12-09T06:03:56.556Z,-1.99
2022-12-09T06:06:28.251Z,-2.00
2022-12-09T06:09:01.808Z,-2.00
2022-12-09T06:11:32.400Z,-2.01
2022-12-09T06:14:00.901Z,-2.01
2022-12-09T06:16:29.481Z,-2.02
2022-12-09T06:18:58.564Z,-2.03
2022-12-09T06:21:27.386Z,-2.03
2022-12-09T06:23:55.704Z,-2.02
2022-12-09T06:26:27.141Z,-2.03
2022-12-09T06:28:57.550Z,-2.07
2022-12-09T06:31:28.472Z,-2.15
2022-12-09T06:33:58.823Z,-2.28
2022-12-09T06:36:31.074Z,-2.32
2022-12-09T06:39:07.948Z,-2.38
2022-12-09T06:41:43.099Z,-2.40
2022-12-09T06:44:16.914Z,-2.39
2022-12-09T06:46:50.347Z,-2.40
2022-12-09T06:49:19.140Z,-2.41
2022-12-09T06:51:48.051Z,-2.41
2022-12-09T06:54:16.797Z,-2.37
2022-12-09T06:56:45.382Z,-2.34
2022-12-09T06:59:14.282Z,-2.31
2022-12-09T07:01:42.988Z,-2.30
2022-12-09T07:04:14.695Z,-2.32
2022-12-09T07:06:45.269Z,-2.31
2022-12-09T07:09:19.940Z,-2.29
2022-12-09T07:11:49.039Z,-2.30
2022-12-09T07:14:19.156Z,-2.37
2022-12-09T07:16:48.089Z,-2.43
2022-12-09T07:19:21.032Z,-2.54
2022-12-09T07:21:51.822Z,-2.62
2022-12-09T07:24:21.211Z,-2.68
2022-12-09T07:26:50.268Z,-2.74
2022-12-09T07:29:19.418Z,-2.76
2022-12-09T07:31:48.704Z,-2.79
2022-12-09T07:34:17.605Z,-2.85
2022-12-09T07:36:46.741Z,-2.88
2022-12-09T07:39:17.145Z,-2.90
2022-12-09T07:41:46.118Z,-2.89
2022-12-09T07:44:14.432Z,-2.89
2022-12-09T07:46:43.020Z,-2.91
2022-12-09T07:49:11.924Z,-2.93
2022-12-09T07:51:40.904Z,-2.99
2022-12-09T07:54:13.976Z,-3.05
2022-12-09T07:56:42.872Z,-3.06
2022-12-09T07:59:13.712Z,-3.09
2022-12-09T08:01:43.806Z,-3.09
2022-12-09T08:04:13.232Z,-3.10
2022-12-09T08:06:42.372Z,-3.12
2022-12-09T08:09:13.587Z,-3.18
2022-12-09T08:11:43.525Z,-3.22
2022-12-09T08:14:13.477Z,-3.23
2022-12-09T08:16:43.642Z,-3.25
2022-12-09T08:19:13.686Z,-3.33
2022-12-09T08:21:43.309Z,-3.24
2022-12-09T08:24:12.851Z,-3.25
2022-12-09T08:26:43.309Z,-3.27
2022-12-09T08:29:14.218Z,-3.26
2022-12-09T08:31:44.124Z,-3.26
2022-12-09T08:34:14.413Z,-3.26
2022-12-09T08:36:44.301Z,-3.23
2022-12-09T08:39:14.189Z,-3.19
2022-12-09T08:41:44.567Z,-3.15
2022-12-09T08:44:19.424Z,-3.11
2022-12-09T08:46:50.156Z,-3.08
2022-12-09T08:49:22.059Z,-3.08
2022-12-09T08:51:52.660Z,-3.04
2022-12-09T08:54:21.572Z,-2.99
2022-12-09T08:56:52.386Z,-2.95
2022-12-09T08:59:23.028Z,-2.94
2022-12-09T09:01:51.728Z,-2.89
2022-12-09T09:04:21.740Z,-2.85
2022-12-09T09:06:51.579Z,-2.81
2022-12-09T09:09:21.388Z,-2.79
2022-12-09T09:11:50.319Z,-2.76
2022-12-09T09:14:19.332Z,-2.67
2022-12-09T09:16:48.157Z,-2.58
2022-12-09T09:19:20.818Z,-2.49
2022-12-09T09:21:50.006Z,-2.38
2022-12-09T09:24:21.426Z,-2.30
2022-12-09T09:26:51.674Z,-2.26
2022-12-09T09:29:22.266Z,-2.26
2022-12-09T09:31:56.193Z,-2.21
2022-12-09T09:34:26.945Z,-2.10
2022-12-09T09:36:56.536Z,-1.99
2022-12-09T09:39:25.578Z,-1.93
2022-12-09T09:42:19.764Z,-1.87
2022-12-09T09:44:50.789Z,-1.80
2022-12-09T09:47:36.335Z,-1.77
2022-12-09T09:50:28.619Z,-1.75
2022-12-09T09:52:58.331Z,-1.73
2022-12-09T09:55:39.476Z,-1.68
2022-12-09T09:58:20.578Z,-1.61
2022-12-09T10:01:06.808Z,-1.54
2022-12-09T10:04:40.475Z,-1.46
2022-12-09T10:07:22.090Z,-1.37
2022-12-09T10:10:03.059Z,-1.33
2022-12-09T10:12:31.751Z,-1.35
2022-12-09T10:15:09.792Z,-1.18
2022-12-09T10:17:56.374Z,-1.13
2022-12-09T10:20:28.831Z,-1.08
2022-12-09T10:23:01.312Z,-1.13
2022-12-09T10:25:37.963Z,-1.03
2022-12-09T10:28:24.699Z,-1.00
2022-12-09T10:30:55.796Z,-0.95
2022-12-09T10:33:30.625Z,-0.95
2022-12-09T10:35:59.310Z,-0.92
2022-12-09T10:38:30.414Z,-0.87
2022-12-09T10:41:48.112Z,-0.86
2022-12-09T10:44:22.488Z,-0.78
2022-12-09T10:47:04.082Z,-0.75
2022-12-09T10:49:35.027Z,-0.73
2022-12-09T10:52:05.443Z,-0.69
2022-12-09T10:54:41.650Z,-0.65
2022-12-09T10:57:13.503Z,-0.60
2022-12-09T10:59:56.138Z,-0.53
2022-12-09T11:02:25.456Z,-0.45
2022-12-09T11:04:54.678Z,-0.38
2022-12-09T11:07:26.133Z,-0.31
2022-12-09T11:09:54.849Z,-0.24
2022-12-09T11:12:34.829Z,-0.23
2022-12-09T11:15:32.453Z,-0.12
2022-12-09T11:18:17.552Z,-0.01
2022-12-09T11:21:04.785Z,0.16
2022-12-09T11:23:34.837Z,0.34
2022-12-09T11:26:22.385Z,0.53
2022-12-09T11:29:05.337Z,0.89
2022-12-09T11:31:40.154Z,1.10
2022-12-09T11:34:23.360Z,1.11
2022-12-09T11:36:54.956Z,1.02
2022-12-09T11:39:29.567Z,0.95
2022-12-09T11:42:18.114Z,0.81
2022-12-09T11:45:07.131Z,0.68
2022-12-09T11:48:22.613Z,0.67
2022-12-09T11:50:33.427Z,0.68
2022-12-09T11:53:12.341Z,0.71
2022-12-09T11:56:21.100Z,0.75
2022-12-09T11:59:00.126Z,0.66
2022-12-09T12:01:52.518Z,0.86
2022-12-09T12:04:27.555Z,0.86
2022-12-09T12:07:02.018Z,0.85
2022-12-09T12:09:34.864Z,1.05
2022-12-09T12:12:18.253Z,1.11
2022-12-09T12:14:47.258Z,1.17
2022-12-09T12:17:18.405Z,1.19
2022-12-09T12:19:50.677Z,1.21
2022-12-09T12:22:43.429Z,1.22
2022-12-09T12:25:35.727Z,1.19
2022-12-09T12:28:28.190Z,1.17
2022-12-09T12:31:12.493Z,1.19
2022-12-09T12:36:47.601Z,1.17
2022-12-09T12:39:34.606Z,1.16
2022-12-09T12:42:42.141Z,1.15
2022-12-09T12:45:53.177Z,1.10
2022-12-09T12:48:46.281Z,1.07
2022-12-09T12:51:54.390Z,1.05
2022-12-09T12:54:50.865Z,1.02
2022-12-09T12:57:47.353Z,0.96
2022-12-09T13:00:22.270Z,0.90
2022-12-09T13:03:19.428Z,0.91
2022-12-09T13:05:52.632Z,0.91
2022-12-09T13:08:30.285Z,0.90
2022-12-09T13:11:04.858Z,0.86
2022-12-09T13:13:42.581Z,0.83
2022-12-09T13:16:19.963Z,0.81
2022-12-09T13:18:49.550Z,0.78
2022-12-09T13:21:18.804Z,0.77
2022-12-09T13:23:58.862Z,0.77
2022-12-09T13:27:02.360Z,0.76
2022-12-09T13:29:36.369Z,0.73
2022-12-09T13:32:16.276Z,0.67
2022-12-09T13:34:55.575Z,0.64
2022-12-09T13:37:36.918Z,0.62
2022-12-09T13:40:23.693Z,0.60
2022-12-09T13:43:12.960Z,0.56
2022-12-09T13:45:45.033Z,0.56
2022-12-09T13:48:17.305Z,0.53
2022-12-09T13:50:51.779Z,0.48
2022-12-09T13:53:22.617Z,0.41
2022-12-09T13:55:53.146Z,0.36
2022-12-09T13:58:27.889Z,0.29
2022-12-09T14:01:11.673Z,0.21
2022-12-09T14:04:07.222Z,-0.06
2022-12-09T14:06:46.861Z,0.03
2022-12-09T14:09:38.109Z,-0.16
2022-12-09T14:12:11.937Z,-0.14
2022-12-09T14:14:48.861Z,-0.27
2022-12-09T14:17:33.436Z,-0.33
2022-12-09T14:20:23.605Z,-0.40
2022-12-09T14:23:06.812Z,-0.46
2022-12-09T14:25:35.116Z,-0.52
2022-12-09T14:28:12.512Z,-0.55
2022-12-09T14:31:06.633Z,-0.58
2022-12-09T14:33:41.101Z,-0.60
2022-12-09T14:36:15.266Z,-0.66
2022-12-09T14:42:02.237Z,-0.57
2022-12-09T14:44:47.989Z,-0.58
2022-12-09T14:47:22.915Z,-0.55
2022-12-09T14:49:52.996Z,-0.53
2022-12-09T14:52:31.971Z,-0.51
2022-12-09T14:55:05.247Z,-0.50
2022-12-09T14:57:37.024Z,-0.51
2022-12-09T15:00:07.395Z,-0.54
2022-12-09T15:02:36.133Z,-0.56
2022-12-09T15:05:17.020Z,-0.58
2022-12-09T15:07:46.362Z,-0.60
2022-12-09T15:10:20.522Z,-0.62
2022-12-09T15:12:55.452Z,-0.61
2022-12-09T15:15:42.506Z,-0.59
2022-12-09T15:18:13.740Z,-0.56
2022-12-09T15:20:43.005Z,-0.65
2022-12-09T15:23:30.945Z,-0.64
2022-12-09T15:26:03.790Z,-0.56
2022-12-09T15:28:34.662Z,-0.57
2022-12-09T15:31:16.580Z,-0.58
2022-12-09T15:33:49.688Z,-0.59
2022-12-09T15:36:32.519Z,-0.60
2022-12-09T15:39:03.028Z,-0.56
2022-12-09T15:42:03.871Z,-0.53
2022-12-09T15:44:47.713Z,-0.50
2022-12-09T15:47:23.560Z,-0.49
2022-12-09T15:49:57.682Z,-0.46
2022-12-09T15:52:31.300Z,-0.44
2022-12-09T15:55:06.946Z,-0.46
2022-12-09T15:57:36.060Z,-0.47
2022-12-09T16:00:05.804Z,-0.46
2022-12-09T16:02:38.201Z,-0.43
2022-12-09T16:05:09.777Z,-0.40
2022-12-09T16:07:38.568Z,-0.39
2022-12-09T16:10:16.292Z,-0.40
2022-12-09T16:12:45.340Z,-0.48
2022-12-09T16:15:34.738Z,-0.37
2022-12-09T16:18:04.272Z,-0.37
2022-12-09T16:20:35.891Z,-0.36
2022-12-09T16:23:06.311Z,-0.38
2022-12-09T16:25:44.867Z,-0.47
2022-12-09T16:28:22.937Z,-0.46
2022-12-09T16:30:56.934Z,-0.36
2022-12-09T16:33:26.193Z,-0.39
2022-12-09T16:35:59.487Z,-0.39
2022-12-09T16:38:27.811Z,-0.37
2022-12-09T16:40:56.171Z,-0.35
2022-12-09T16:43:26.366Z,-0.32
2022-12-09T16:45:57.520Z,-0.28
2022-12-09T16:48:28.197Z,-0.25
2022-12-09T16:51:14.310Z,-0.22
2022-12-09T16:53:45.277Z,-0.21
2022-12-09T16:56:25.110Z,-0.20
2022-12-09T16:58:54.537Z,-0.18
2022-12-09T17:01:37.083Z,-0.18
2022-12-09T17:04:18.010Z,-0.21
2022-12-09T17:06:46.696Z,-0.21
2022-12-09T17:09:16.312Z,-0.22
2022-12-09T17:11:48.840Z,-0.26
2022-12-09T17:14:18.246Z,-0.28
2022-12-09T17:16:46.999Z,-0.29
2022-12-09T17:19:15.322Z,-0.28
2022-12-09T17:21:43.622Z,-0.28
2022-12-09T17:24:12.283Z,-0.33
2022-12-09T17:26:40.750Z,-0.26
2022-12-09T17:29:09.073Z,-0.25
2022-12-09T17:31:37.616Z,-0.22
2022-12-09T17:34:06.133Z,-0.23
2022-12-09T17:36:34.572Z,-0.21
2022-12-09T17:39:04.328Z,-0.19
2022-12-09T17:41:33.871Z,-0.20
2022-12-09T17:44:02.313Z,-0.19
2022-12-09T17:46:30.877Z,-0.16
2022-12-09T17:49:03.367Z,-0.16
2022-12-09T17:51:35.968Z,-0.20
2022-12-09T17:54:05.773Z,-0.22
2022-12-09T17:56:34.447Z,-0.25
2022-12-09T17:59:11.996Z,-0.27
2022-12-09T18:01:44.028Z,-0.29
2022-12-09T18:04:13.960Z,-0.28
2022-12-09T18:06:45.272Z,-0.28
2022-12-09T18:09:16.837Z,-0.28
2022-12-09T18:11:46.110Z,-0.29
2022-12-09T18:14:15.959Z,-0.30
2022-12-09T18:16:46.740Z,-0.30
2022-12-09T18:19:17.552Z,-0.31
2022-12-09T18:21:46.020Z,-0.31
2022-12-09T18:24:14.491Z,-0.30
2022-12-09T18:26:43.371Z,-0.30
2022-12-09T18:29:12.996Z,-0.30
2022-12-09T18:31:42.327Z,-0.35
2022-12-09T18:34:10.773Z,-0.37
2022-12-09T18:36:39.125Z,-0.47
2022-12-09T18:39:07.687Z,-0.39
2022-12-09T18:41:36.136Z,-0.41
2022-12-09T18:44:06.766Z,-0.42
2022-12-09T18:46:39.341Z,-0.43
2022-12-09T18:49:13.391Z,-0.43
2022-12-09T18:51:44.012Z,-0.41
2022-12-09T18:54:17.377Z,-0.40
2022-12-09T18:56:45.578Z,-0.37
2022-12-09T18:59:13.893Z,-0.36
2022-12-09T19:01:45.100Z,-0.38
2022-12-09T19:04:16.375Z,-0.37
2022-12-09T19:06:47.977Z,-0.35
2022-12-09T19:09:19.113Z,-0.35
2022-12-09T19:11:48.889Z,-0.40
2022-12-09T19:14:19.390Z,-0.65
2022-12-09T19:16:48.425Z,-0.50
2022-12-09T19:19:22.985Z,-0.52
2022-12-09T19:21:51.410Z,-0.53
2022-12-09T19:24:22.632Z,-0.55
2022-12-09T19:26:53.409Z,-0.56
2022-12-09T19:29:24.830Z,-0.55
2022-12-09T19:31:54.307Z,-0.57
2022-12-09T19:34:30.204Z,-0.58
2022-12-09T19:37:00.853Z,-0.59
2022-12-09T19:39:31.478Z,-0.61
2022-12-09T19:42:00.928Z,-0.59
2022-12-09T19:45:00.892Z,-0.58
2022-12-09T19:47:18.468Z,-0.59
2022-12-09T19:49:47.233Z,-0.62
2022-12-09T19:52:15.651Z,-0.62
2022-12-09T19:54:44.014Z,-0.67
2022-12-09T19:57:12.407Z,-0.73
2022-12-09T19:59:40.957Z,-0.77
2022-12-09T20:02:12.334Z,-0.83
2022-12-09T20:04:50.026Z,-0.89
2022-12-09T20:07:20.229Z,-0.98
2022-12-09T20:09:49.101Z,-1.03
2022-12-09T20:12:17.385Z,-1.05
2022-12-09T20:14:45.674Z,-1.10
2022-12-09T20:17:13.932Z,-1.32
2022-12-09T20:19:42.417Z,-1.16
2022-12-09T20:22:10.989Z,-1.19
2022-12-09T20:24:39.311Z,-1.24
2022-12-09T20:27:07.679Z,-1.28
2022-12-09T20:29:38.214Z,-1.30
2022-12-09T20:32:08.718Z,-1.34
2022-12-09T20:34:37.557Z,-1.39
2022-12-09T20:37:06.129Z,-1.41
2022-12-09T20:39:34.825Z,-1.45
2022-12-09T20:42:03.132Z,-1.48
2022-12-09T20:44:32.721Z,-1.50
2022-12-09T20:47:01.117Z,-1.52
2022-12-09T20:49:30.399Z,-1.54
2022-12-09T20:51:59.053Z,-1.73
2022-12-09T20:54:27.499Z,-1.56
2022-12-09T20:56:56.188Z,-1.56
2022-12-09T20:59:25.395Z,-1.56
2022-12-09T21:01:56.151Z,-1.56
2022-12-09T21:04:24.810Z,-1.58
2022-12-09T21:06:53.900Z,-1.59
2022-12-09T21:09:27.199Z,-1.62
2022-12-09T21:11:55.940Z,-1.69
2022-12-09T21:14:29.522Z,-1.63
2022-12-09T21:17:01.200Z,-1.62
2022-12-09T21:19:30.551Z,-1.62
2022-12-09T21:21:59.082Z,-1.64
2022-12-09T21:24:27.500Z,-1.65
2022-12-09T21:26:57.376Z,-1.65
2022-12-09T21:29:31.323Z,-1.66
2022-12-09T21:32:01.608Z,-1.67
2022-12-09T21:34:30.966Z,-1.66
2022-12-09T21:36:59.535Z,-1.95
2022-12-09T21:39:28.450Z,-1.76
2022-12-09T21:41:56.775Z,-1.80
2022-12-09T21:44:25.674Z,-1.80
2022-12-09T21:46:54.259Z,-1.81
2022-12-09T21:49:22.746Z,-1.88
2022-12-09T21:51:51.103Z,-1.82
2022-12-09T21:54:19.412Z,-1.80
2022-12-09T21:56:47.782Z,-1.93
2022-12-09T21:59:16.104Z,-1.85
2022-12-09T22:01:44.687Z,-1.84
2022-12-09T22:04:16.366Z,-1.84
2022-12-09T22:06:50.410Z,-1.80
2022-12-09T22:09:21.264Z,-1.78
2022-12-09T22:11:49.973Z,-1.78
2022-12-09T22:14:18.264Z,-1.76
2022-12-09T22:16:46.925Z,-1.74
2022-12-09T22:19:17.837Z,-1.73
2022-12-09T22:21:46.680Z,-1.75
2022-12-09T22:24:15.776Z,-1.73
2022-12-09T22:26:45.426Z,-1.72
2022-12-09T22:29:16.161Z,-1.71
2022-12-09T22:31:45.588Z,-1.70
2022-12-09T22:34:19.118Z,-1.68
2022-12-09T22:36:49.076Z,-1.68
2022-12-09T22:39:21.811Z,-1.69
2022-12-09T22:41:51.244Z,-1.70
2022-12-09T22:44:20.129Z,-1.68
2022-12-09T22:46:52.215Z,-1.76
2022-12-09T22:49:20.585Z,-1.67
2022-12-09T22:51:49.161Z,-1.65
2022-12-09T22:54:17.913Z,-1.63
2022-12-09T22:56:46.257Z,-1.64
2022-12-09T22:59:15.275Z,-1.65
2022-12-09T23:01:49.745Z,-1.65
2022-12-09T23:04:21.958Z,-1.65
2022-12-09T23:06:50.764Z,-1.61
2022-12-09T23:09:25.287Z,-1.57
2022-12-09T23:11:54.036Z,-1.53
2022-12-09T23:14:22.511Z,-1.51
2022-12-09T23:16:50.796Z,-1.49
2022-12-09T23:19:19.104Z,-1.46
2022-12-09T23:21:47.876Z,-1.44
2022-12-09T23:24:24.114Z,-1.44
2022-12-09T23:26:56.040Z,-1.43
2022-12-09T23:29:24.305Z,-1.40
2022-12-09T23:31:52.732Z,-1.39
2022-12-09T23:34:21.129Z,-1.43
2022-12-09T23:36:49.600Z,-1.41
2022-12-09T23:39:19.195Z,-1.41
2022-12-09T23:41:48.439Z,-1.40
2022-12-09T23:44:19.008Z,-1.41
2022-12-09T23:46:47.912Z,-1.47
2022-12-09T23:49:16.925Z,-1.49
2022-12-09T23:51:45.569Z,-1.49
2022-12-09T23:54:16.016Z,-1.46
2022-12-09T23:56:49.919Z,-1.49
2022-12-09T23:59:22.819Z,-1.53
